sensor_id;sensor_type;location;lat;lon;timestamp;P1;durP1;ratioP1;P2;durP2;ratioP2
5553;SDS011;2800;49.528;8.666;2022-10-16T00:00:31;5.30;;;2.07;;
5553;SDS011;2800;49.528;8.666;2022-10-16T00:02:57;8.43;;;2.20;;
5553;SDS011;2800;49.528;8.666;2022-10-16T00:05:22;7.83;;;2.27;;
5553;SDS011;2800;49.528;8.666;2022-10-16T00:07:48;6.50;;;2.13;;
5553;SDS011;2800;49.528;8.666;2022-10-16T00:10:13;7.37;;;2.90;;
5553;SDS011;2800;49.528;8.666;2022-10-16T00:12:39;7.53;;;2.47;;
5553;SDS011;2800;49.528;8.666;2022-10-16T00:15:05;5.40;;;2.60;;
5553;SDS011;2800;49.528;8.666;2022-10-16T00:17:31;8.07;;;2.60;;
5553;SDS011;2800;49.528;8.666;2022-10-16T00:19:56;7.43;;;2.63;;
5553;SDS011;2800;49.528;8.666;2022-10-16T00:22:22;5.90;;;2.87;;
5553;SDS011;2800;49.528;8.666;2022-10-16T00:24:48;7.70;;;2.90;;
5553;SDS011;2800;49.528;8.666;2022-10-16T00:27:13;7.80;;;2.93;;
5553;SDS011;2800;49.528;8.666;2022-10-16T00:29:39;6.87;;;3.43;;
5553;SDS011;2800;49.528;8.666;2022-10-16T00:32:04;11.90;;;2.83;;
5553;SDS011;2800;49.528;8.666;2022-10-16T00:34:30;9.00;;;3.00;;
5553;SDS011;2800;49.528;8.666;2022-10-16T00:36:55;5.27;;;2.27;;
5553;SDS011;2800;49.528;8.666;2022-10-16T00:39:21;7.83;;;2.50;;
5553;SDS011;2800;49.528;8.666;2022-10-16T00:41:47;8.93;;;2.50;;
5553;SDS011;2800;49.528;8.666;2022-10-16T00:47:08;7.47;;;2.27;;
5553;SDS011;2800;49.528;8.666;2022-10-16T00:49:34;5.97;;;1.97;;
5553;SDS011;2800;49.528;8.666;2022-10-16T00:52:00;6.40;;;2.00;;
5553;SDS011;2800;49.528;8.666;2022-10-16T00:54:26;6.70;;;2.23;;
5553;SDS011;2800;49.528;8.666;2022-10-16T00:56:54;5.40;;;1.80;;
5553;SDS011;2800;49.528;8.666;2022-10-16T00:59:25;6.40;;;2.50;;
5553;SDS011;2800;49.528;8.666;2022-10-16T01:01:54;5.87;;;2.03;;
5553;SDS011;2800;49.528;8.666;2022-10-16T01:04:20;5.10;;;2.10;;
5553;SDS011;2800;49.528;8.666;2022-10-16T01:06:58;6.63;;;2.13;;
5553;SDS011;2800;49.528;8.666;2022-10-16T01:12:10;7.27;;;2.00;;
5553;SDS011;2800;49.528;8.666;2022-10-16T01:15:02;8.37;;;1.87;;
5553;SDS011;2800;49.528;8.666;2022-10-16T01:17:34;4.63;;;1.97;;
5553;SDS011;2800;49.528;8.666;2022-10-16T01:28:38;4.60;;;1.77;;
5553;SDS011;2800;49.528;8.666;2022-10-16T01:31:09;5.13;;;2.10;;
5553;SDS011;2800;49.528;8.666;2022-10-16T01:33:43;4.33;;;1.77;;
5553;SDS011;2800;49.528;8.666;2022-10-16T01:36:26;8.50;;;2.33;;
5553;SDS011;2800;49.528;8.666;2022-10-16T01:38:56;8.57;;;2.20;;
5553;SDS011;2800;49.528;8.666;2022-10-16T01:41:30;5.23;;;1.97;;
5553;SDS011;2800;49.528;8.666;2022-10-16T01:47:05;7.60;;;2.30;;
5553;SDS011;2800;49.528;8.666;2022-10-16T01:49:34;4.90;;;1.90;;
5553;SDS011;2800;49.528;8.666;2022-10-16T01:52:04;6.40;;;1.67;;
5553;SDS011;2800;49.528;8.666;2022-10-16T01:54:33;5.90;;;2.07;;
5553;SDS011;2800;49.528;8.666;2022-10-16T01:57:02;5.30;;;2.13;;
5553;SDS011;2800;49.528;8.666;2022-10-16T01:59:31;7.80;;;1.80;;
5553;SDS011;2800;49.528;8.666;2022-10-16T02:01:59;6.40;;;2.00;;
5553;SDS011;2800;49.528;8.666;2022-10-16T02:04:31;5.53;;;2.00;;
5553;SDS011;2800;49.528;8.666;2022-10-16T02:07:01;4.87;;;1.93;;
5553;SDS011;2800;49.528;8.666;2022-10-16T02:09:26;6.67;;;1.93;;
5553;SDS011;2800;49.528;8.666;2022-10-16T02:11:52;7.17;;;2.00;;
5553;SDS011;2800;49.528;8.666;2022-10-16T02:14:21;4.73;;;1.80;;
5553;SDS011;2800;49.528;8.666;2022-10-16T02:16:49;6.43;;;2.20;;
5553;SDS011;2800;49.528;8.666;2022-10-16T02:19:15;7.80;;;2.00;;
5553;SDS011;2800;49.528;8.666;2022-10-16T02:21:52;10.70;;;1.93;;
5553;SDS011;2800;49.528;8.666;2022-10-16T02:25:24;5.60;;;1.80;;
5553;SDS011;2800;49.528;8.666;2022-10-16T02:27:26;5.53;;;1.97;;
5553;SDS011;2800;49.528;8.666;2022-10-16T02:29:59;4.97;;;1.90;;
5553;SDS011;2800;49.528;8.666;2022-10-16T02:32:45;5.70;;;1.90;;
5553;SDS011;2800;49.528;8.666;2022-10-16T02:35:13;6.47;;;2.07;;
5553;SDS011;2800;49.528;8.666;2022-10-16T02:37:41;6.47;;;2.20;;
5553;SDS011;2800;49.528;8.666;2022-10-16T02:40:08;8.93;;;2.17;;
5553;SDS011;2800;49.528;8.666;2022-10-16T02:42:35;4.70;;;2.03;;
5553;SDS011;2800;49.528;8.666;2022-10-16T02:45:02;5.57;;;2.03;;
5553;SDS011;2800;49.528;8.666;2022-10-16T02:47:29;5.07;;;2.00;;
5553;SDS011;2800;49.528;8.666;2022-10-16T02:49:54;5.43;;;2.00;;
5553;SDS011;2800;49.528;8.666;2022-10-16T02:52:20;7.93;;;1.93;;
5553;SDS011;2800;49.528;8.666;2022-10-16T02:54:45;8.20;;;2.00;;
5553;SDS011;2800;49.528;8.666;2022-10-16T02:57:11;6.50;;;2.00;;
5553;SDS011;2800;49.528;8.666;2022-10-16T02:59:36;7.60;;;2.27;;
5553;SDS011;2800;49.528;8.666;2022-10-16T03:02:02;10.03;;;1.80;;
5553;SDS011;2800;49.528;8.666;2022-10-16T03:04:28;9.50;;;2.20;;
5553;SDS011;2800;49.528;8.666;2022-10-16T03:06:53;5.40;;;1.93;;
5553;SDS011;2800;49.528;8.666;2022-10-16T03:09:19;11.00;;;2.10;;
5553;SDS011;2800;49.528;8.666;2022-10-16T03:11:44;6.67;;;2.20;;
5553;SDS011;2800;49.528;8.666;2022-10-16T03:14:10;10.17;;;2.23;;
5553;SDS011;2800;49.528;8.666;2022-10-16T03:16:35;6.87;;;1.90;;
5553;SDS011;2800;49.528;8.666;2022-10-16T03:19:01;10.50;;;1.90;;
5553;SDS011;2800;49.528;8.666;2022-10-16T03:21:26;10.37;;;2.40;;
5553;SDS011;2800;49.528;8.666;2022-10-16T03:23:52;4.90;;;2.10;;
5553;SDS011;2800;49.528;8.666;2022-10-16T03:26:17;10.70;;;2.07;;
5553;SDS011;2800;49.528;8.666;2022-10-16T03:28:43;8.97;;;2.50;;
5553;SDS011;2800;49.528;8.666;2022-10-16T03:31:08;5.57;;;2.00;;
5553;SDS011;2800;49.528;8.666;2022-10-16T03:33:34;7.30;;;1.90;;
5553;SDS011;2800;49.528;8.666;2022-10-16T03:35:59;11.03;;;2.00;;
5553;SDS011;2800;49.528;8.666;2022-10-16T03:38:25;7.53;;;2.00;;
5553;SDS011;2800;49.528;8.666;2022-10-16T03:40:50;7.80;;;1.80;;
5553;SDS011;2800;49.528;8.666;2022-10-16T03:43:16;6.30;;;1.90;;
5553;SDS011;2800;49.528;8.666;2022-10-16T03:45:41;9.07;;;2.07;;
5553;SDS011;2800;49.528;8.666;2022-10-16T03:48:07;9.10;;;2.10;;
5553;SDS011;2800;49.528;8.666;2022-10-16T03:50:32;8.23;;;2.20;;
5553;SDS011;2800;49.528;8.666;2022-10-16T03:52:58;4.70;;;2.00;;
5553;SDS011;2800;49.528;8.666;2022-10-16T03:55:23;11.13;;;2.13;;
5553;SDS011;2800;49.528;8.666;2022-10-16T03:57:49;14.27;;;2.27;;
5553;SDS011;2800;49.528;8.666;2022-10-16T04:00:14;6.07;;;1.90;;
5553;SDS011;2800;49.528;8.666;2022-10-16T04:02:40;10.47;;;2.07;;
5553;SDS011;2800;49.528;8.666;2022-10-16T04:05:06;9.50;;;1.90;;
5553;SDS011;2800;49.528;8.666;2022-10-16T04:07:32;10.57;;;2.27;;
5553;SDS011;2800;49.528;8.666;2022-10-16T04:09:57;7.63;;;2.00;;
5553;SDS011;2800;49.528;8.666;2022-10-16T04:12:24;7.20;;;2.00;;
5553;SDS011;2800;49.528;8.666;2022-10-16T04:14:50;4.97;;;2.23;;
5553;SDS011;2800;49.528;8.666;2022-10-16T04:17:15;7.40;;;2.00;;
5553;SDS011;2800;49.528;8.666;2022-10-16T04:19:41;5.63;;;2.10;;
5553;SDS011;2800;49.528;8.666;2022-10-16T04:22:07;9.47;;;2.40;;
5553;SDS011;2800;49.528;8.666;2022-10-16T04:24:32;9.83;;;2.40;;
5553;SDS011;2800;49.528;8.666;2022-10-16T04:26:58;11.33;;;2.10;;
5553;SDS011;2800;49.528;8.666;2022-10-16T04:29:23;7.30;;;2.17;;
5553;SDS011;2800;49.528;8.666;2022-10-16T04:31:49;5.50;;;2.20;;
5553;SDS011;2800;49.528;8.666;2022-10-16T04:34:14;9.10;;;1.90;;
5553;SDS011;2800;49.528;8.666;2022-10-16T04:36:40;5.90;;;2.40;;
5553;SDS011;2800;49.528;8.666;2022-10-16T04:39:05;5.73;;;2.00;;
5553;SDS011;2800;49.528;8.666;2022-10-16T04:41:31;15.43;;;2.27;;
5553;SDS011;2800;49.528;8.666;2022-10-16T04:43:56;12.40;;;1.90;;
5553;SDS011;2800;49.528;8.666;2022-10-16T04:46:23;6.87;;;1.97;;
5553;SDS011;2800;49.528;8.666;2022-10-16T04:48:48;8.33;;;2.83;;
5553;SDS011;2800;49.528;8.666;2022-10-16T04:51:13;5.40;;;2.03;;
5553;SDS011;2800;49.528;8.666;2022-10-16T04:53:39;6.27;;;1.97;;
5553;SDS011;2800;49.528;8.666;2022-10-16T04:56:04;5.73;;;2.00;;
5553;SDS011;2800;49.528;8.666;2022-10-16T04:58:30;7.70;;;2.10;;
5553;SDS011;2800;49.528;8.666;2022-10-16T05:00:56;6.37;;;2.20;;
5553;SDS011;2800;49.528;8.666;2022-10-16T05:03:21;6.97;;;2.30;;
5553;SDS011;2800;49.528;8.666;2022-10-16T05:05:47;6.20;;;2.23;;
5553;SDS011;2800;49.528;8.666;2022-10-16T05:08:13;8.77;;;2.50;;
5553;SDS011;2800;49.528;8.666;2022-10-16T05:10:43;5.73;;;2.13;;
5553;SDS011;2800;49.528;8.666;2022-10-16T05:13:09;6.30;;;2.00;;
5553;SDS011;2800;49.528;8.666;2022-10-16T05:15:34;5.47;;;1.93;;
5553;SDS011;2800;49.528;8.666;2022-10-16T05:18:00;6.87;;;1.93;;
5553;SDS011;2800;49.528;8.666;2022-10-16T05:20:25;6.40;;;1.90;;
5553;SDS011;2800;49.528;8.666;2022-10-16T05:22:51;5.60;;;2.20;;
5553;SDS011;2800;49.528;8.666;2022-10-16T05:25:17;5.80;;;2.07;;
5553;SDS011;2800;49.528;8.666;2022-10-16T05:27:42;5.10;;;1.80;;
5553;SDS011;2800;49.528;8.666;2022-10-16T05:30:08;4.30;;;1.87;;
5553;SDS011;2800;49.528;8.666;2022-10-16T05:32:34;5.97;;;1.77;;
5553;SDS011;2800;49.528;8.666;2022-10-16T05:34:59;6.40;;;2.10;;
5553;SDS011;2800;49.528;8.666;2022-10-16T05:37:27;8.97;;;2.23;;
5553;SDS011;2800;49.528;8.666;2022-10-16T05:39:52;8.20;;;1.80;;
5553;SDS011;2800;49.528;8.666;2022-10-16T05:42:18;7.80;;;1.83;;
5553;SDS011;2800;49.528;8.666;2022-10-16T05:44:44;5.33;;;1.73;;
5553;SDS011;2800;49.528;8.666;2022-10-16T05:47:09;6.00;;;1.80;;
5553;SDS011;2800;49.528;8.666;2022-10-16T05:49:37;5.37;;;1.70;;
5553;SDS011;2800;49.528;8.666;2022-10-16T05:52:02;7.00;;;2.00;;
5553;SDS011;2800;49.528;8.666;2022-10-16T05:54:28;11.27;;;2.30;;
5553;SDS011;2800;49.528;8.666;2022-10-16T05:56:53;7.50;;;1.90;;
5553;SDS011;2800;49.528;8.666;2022-10-16T05:59:19;4.77;;;1.60;;
5553;SDS011;2800;49.528;8.666;2022-10-16T06:01:44;9.20;;;1.73;;
5553;SDS011;2800;49.528;8.666;2022-10-16T06:04:10;5.07;;;2.17;;
5553;SDS011;2800;49.528;8.666;2022-10-16T06:06:35;6.30;;;1.90;;
5553;SDS011;2800;49.528;8.666;2022-10-16T06:09:01;10.30;;;1.83;;
5553;SDS011;2800;49.528;8.666;2022-10-16T06:11:28;6.10;;;2.00;;
5553;SDS011;2800;49.528;8.666;2022-10-16T06:13:56;9.10;;;2.10;;
5553;SDS011;2800;49.528;8.666;2022-10-16T06:16:24;6.13;;;1.93;;
5553;SDS011;2800;49.528;8.666;2022-10-16T06:18:50;11.07;;;2.40;;
5553;SDS011;2800;49.528;8.666;2022-10-16T06:21:18;7.13;;;2.23;;
5553;SDS011;2800;49.528;8.666;2022-10-16T06:23:49;6.57;;;2.00;;
5553;SDS011;2800;49.528;8.666;2022-10-16T06:26:17;8.20;;;1.97;;
5553;SDS011;2800;49.528;8.666;2022-10-16T06:28:45;6.73;;;1.70;;
5553;SDS011;2800;49.528;8.666;2022-10-16T06:31:11;5.50;;;1.90;;
5553;SDS011;2800;49.528;8.666;2022-10-16T06:33:38;6.60;;;2.13;;
5553;SDS011;2800;49.528;8.666;2022-10-16T06:36:14;10.33;;;1.90;;
5553;SDS011;2800;49.528;8.666;2022-10-16T06:38:41;10.93;;;2.13;;
5553;SDS011;2800;49.528;8.666;2022-10-16T06:41:09;5.60;;;2.00;;
5553;SDS011;2800;49.528;8.666;2022-10-16T06:43:37;7.43;;;2.10;;
5553;SDS011;2800;49.528;8.666;2022-10-16T06:46:03;8.50;;;2.10;;
5553;SDS011;2800;49.528;8.666;2022-10-16T06:48:30;6.70;;;1.90;;
5553;SDS011;2800;49.528;8.666;2022-10-16T06:50:59;14.87;;;2.30;;
5553;SDS011;2800;49.528;8.666;2022-10-16T06:53:28;9.70;;;1.90;;
5553;SDS011;2800;49.528;8.666;2022-10-16T06:55:55;5.53;;;2.13;;
5553;SDS011;2800;49.528;8.666;2022-10-16T06:58:21;6.10;;;2.87;;
5553;SDS011;2800;49.528;8.666;2022-10-16T07:00:46;10.10;;;4.23;;
5553;SDS011;2800;49.528;8.666;2022-10-16T07:03:12;9.03;;;2.90;;
5553;SDS011;2800;49.528;8.666;2022-10-16T07:05:39;6.97;;;3.20;;
5553;SDS011;2800;49.528;8.666;2022-10-16T07:08:05;9.40;;;3.00;;
5553;SDS011;2800;49.528;8.666;2022-10-16T07:10:31;8.07;;;3.37;;
5553;SDS011;2800;49.528;8.666;2022-10-16T07:12:57;8.23;;;2.07;;
5553;SDS011;2800;49.528;8.666;2022-10-16T07:15:24;8.77;;;2.07;;
5553;SDS011;2800;49.528;8.666;2022-10-16T07:17:50;11.37;;;2.33;;
5553;SDS011;2800;49.528;8.666;2022-10-16T07:20:15;14.57;;;2.47;;
5553;SDS011;2800;49.528;8.666;2022-10-16T07:22:41;6.83;;;2.13;;
5553;SDS011;2800;49.528;8.666;2022-10-16T07:25:06;5.23;;;2.30;;
5553;SDS011;2800;49.528;8.666;2022-10-16T07:27:32;8.03;;;2.40;;
5553;SDS011;2800;49.528;8.666;2022-10-16T07:29:58;13.93;;;2.23;;
5553;SDS011;2800;49.528;8.666;2022-10-16T07:32:23;8.23;;;2.30;;
5553;SDS011;2800;49.528;8.666;2022-10-16T07:34:50;6.33;;;2.20;;
5553;SDS011;2800;49.528;8.666;2022-10-16T07:37:16;5.80;;;1.83;;
5553;SDS011;2800;49.528;8.666;2022-10-16T07:39:42;9.30;;;2.13;;
5553;SDS011;2800;49.528;8.666;2022-10-16T07:42:08;7.90;;;2.30;;
5553;SDS011;2800;49.528;8.666;2022-10-16T07:44:33;6.80;;;2.37;;
5553;SDS011;2800;49.528;8.666;2022-10-16T07:46:59;6.43;;;2.00;;
5553;SDS011;2800;49.528;8.666;2022-10-16T07:49:24;6.30;;;2.23;;
5553;SDS011;2800;49.528;8.666;2022-10-16T07:51:50;8.00;;;2.27;;
5553;SDS011;2800;49.528;8.666;2022-10-16T07:54:15;7.73;;;1.90;;
5553;SDS011;2800;49.528;8.666;2022-10-16T07:56:41;6.83;;;2.10;;
5553;SDS011;2800;49.528;8.666;2022-10-16T07:59:06;5.43;;;2.33;;
5553;SDS011;2800;49.528;8.666;2022-10-16T08:01:32;5.40;;;2.03;;
5553;SDS011;2800;49.528;8.666;2022-10-16T08:03:57;5.33;;;2.20;;
5553;SDS011;2800;49.528;8.666;2022-10-16T08:06:23;7.60;;;2.30;;
5553;SDS011;2800;49.528;8.666;2022-10-16T08:08:48;8.00;;;2.10;;
5553;SDS011;2800;49.528;8.666;2022-10-16T08:11:14;12.60;;;2.50;;
5553;SDS011;2800;49.528;8.666;2022-10-16T08:13:40;7.60;;;1.97;;
5553;SDS011;2800;49.528;8.666;2022-10-16T08:16:06;5.53;;;1.93;;
5553;SDS011;2800;49.528;8.666;2022-10-16T08:18:37;6.23;;;2.27;;
5553;SDS011;2800;49.528;8.666;2022-10-16T08:21:04;5.63;;;2.30;;
5553;SDS011;2800;49.528;8.666;2022-10-16T08:23:31;7.80;;;2.03;;
5553;SDS011;2800;49.528;8.666;2022-10-16T08:26:01;7.90;;;2.20;;
5553;SDS011;2800;49.528;8.666;2022-10-16T08:28:31;5.90;;;2.07;;
5553;SDS011;2800;49.528;8.666;2022-10-16T08:31:04;10.03;;;2.17;;
5553;SDS011;2800;49.528;8.666;2022-10-16T08:33:30;6.13;;;2.47;;
5553;SDS011;2800;49.528;8.666;2022-10-16T08:35:56;5.83;;;2.20;;
5553;SDS011;2800;49.528;8.666;2022-10-16T08:38:21;5.00;;;2.10;;
5553;SDS011;2800;49.528;8.666;2022-10-16T08:40:47;12.70;;;2.10;;
5553;SDS011;2800;49.528;8.666;2022-10-16T08:43:18;9.47;;;2.27;;
5553;SDS011;2800;49.528;8.666;2022-10-16T08:45:53;6.17;;;2.03;;
5553;SDS011;2800;49.528;8.666;2022-10-16T08:48:43;8.40;;;2.03;;
5553;SDS011;2800;49.528;8.666;2022-10-16T08:51:24;10.27;;;2.10;;
5553;SDS011;2800;49.528;8.666;2022-10-16T08:53:55;8.10;;;1.80;;
5553;SDS011;2800;49.528;8.666;2022-10-16T08:56:50;6.33;;;1.80;;
5553;SDS011;2800;49.528;8.666;2022-10-16T08:59:16;7.00;;;2.43;;
5553;SDS011;2800;49.528;8.666;2022-10-16T09:01:44;5.70;;;2.13;;
5553;SDS011;2800;49.528;8.666;2022-10-16T09:07:20;12.33;;;3.43;;
5553;SDS011;2800;49.528;8.666;2022-10-16T09:21:36;6.80;;;2.60;;
5553;SDS011;2800;49.528;8.666;2022-10-16T09:24:25;7.20;;;2.40;;
5553;SDS011;2800;49.528;8.666;2022-10-16T09:26:51;6.03;;;2.50;;
5553;SDS011;2800;49.528;8.666;2022-10-16T09:29:17;6.27;;;2.10;;
5553;SDS011;2800;49.528;8.666;2022-10-16T09:31:49;7.50;;;3.40;;
5553;SDS011;2800;49.528;8.666;2022-10-16T09:34:24;13.80;;;9.07;;
5553;SDS011;2800;49.528;8.666;2022-10-16T09:37:03;5.30;;;2.17;;
5553;SDS011;2800;49.528;8.666;2022-10-16T09:39:43;7.63;;;2.30;;
5553;SDS011;2800;49.528;8.666;2022-10-16T09:42:11;6.00;;;1.90;;
5553;SDS011;2800;49.528;8.666;2022-10-16T09:44:46;5.83;;;1.93;;
5553;SDS011;2800;49.528;8.666;2022-10-16T09:47:23;7.43;;;2.50;;
5553;SDS011;2800;49.528;8.666;2022-10-16T09:50:00;5.93;;;2.00;;
5553;SDS011;2800;49.528;8.666;2022-10-16T09:52:29;7.37;;;2.23;;
5553;SDS011;2800;49.528;8.666;2022-10-16T09:54:56;12.50;;;6.70;;
5553;SDS011;2800;49.528;8.666;2022-10-16T09:57:24;12.57;;;8.07;;
5553;SDS011;2800;49.528;8.666;2022-10-16T09:59:51;26.77;;;10.50;;
5553;SDS011;2800;49.528;8.666;2022-10-16T10:02:18;12.30;;;3.73;;
5553;SDS011;2800;49.528;8.666;2022-10-16T10:04:54;11.57;;;7.47;;
5553;SDS011;2800;49.528;8.666;2022-10-16T10:07:23;6.43;;;3.30;;
5553;SDS011;2800;49.528;8.666;2022-10-16T10:09:51;12.10;;;3.67;;
5553;SDS011;2800;49.528;8.666;2022-10-16T10:12:27;9.60;;;3.63;;
5553;SDS011;2800;49.528;8.666;2022-10-16T10:14:56;5.57;;;2.10;;
5553;SDS011;2800;49.528;8.666;2022-10-16T10:17:26;7.40;;;3.10;;
5553;SDS011;2800;49.528;8.666;2022-10-16T10:20:00;7.30;;;2.00;;
5553;SDS011;2800;49.528;8.666;2022-10-16T10:30:53;5.77;;;2.30;;
5553;SDS011;2800;49.528;8.666;2022-10-16T10:43:58;7.10;;;2.73;;
5553;SDS011;2800;49.528;8.666;2022-10-16T10:49:44;10.43;;;2.50;;
5553;SDS011;2800;49.528;8.666;2022-10-16T11:01:12;8.77;;;2.50;;
5553;SDS011;2800;49.528;8.666;2022-10-16T11:06:35;7.20;;;2.17;;
5553;SDS011;2800;49.528;8.666;2022-10-16T11:09:17;7.43;;;2.57;;
5553;SDS011;2800;49.528;8.666;2022-10-16T11:12:08;5.00;;;1.90;;
5553;SDS011;2800;49.528;8.666;2022-10-16T11:20:23;13.57;;;2.20;;
5553;SDS011;2800;49.528;8.666;2022-10-16T11:25:27;4.60;;;2.00;;
5553;SDS011;2800;49.528;8.666;2022-10-16T11:28:06;16.23;;;2.40;;
5553;SDS011;2800;49.528;8.666;2022-10-16T11:38:50;6.30;;;2.00;;
5553;SDS011;2800;49.528;8.666;2022-10-16T11:41:22;5.17;;;2.40;;
5553;SDS011;2800;49.528;8.666;2022-10-16T11:44:14;9.20;;;2.80;;
5553;SDS011;2800;49.528;8.666;2022-10-16T11:46:53;8.30;;;2.43;;
5553;SDS011;2800;49.528;8.666;2022-10-16T11:49:36;5.40;;;2.50;;
5553;SDS011;2800;49.528;8.666;2022-10-16T11:52:11;5.37;;;2.50;;
5553;SDS011;2800;49.528;8.666;2022-10-16T11:57:26;6.97;;;2.50;;
5553;SDS011;2800;49.528;8.666;2022-10-16T11:59:58;6.83;;;1.90;;
5553;SDS011;2800;49.528;8.666;2022-10-16T12:02:54;6.30;;;2.50;;
5553;SDS011;2800;49.528;8.666;2022-10-16T12:08:15;6.53;;;2.27;;
5553;SDS011;2800;49.528;8.666;2022-10-16T12:10:42;8.33;;;2.87;;
5553;SDS011;2800;49.528;8.666;2022-10-16T12:18:31;6.70;;;2.63;;
5553;SDS011;2800;49.528;8.666;2022-10-16T12:20:57;6.00;;;2.33;;
5553;SDS011;2800;49.528;8.666;2022-10-16T12:23:24;5.23;;;2.30;;
5553;SDS011;2800;49.528;8.666;2022-10-16T12:25:57;5.40;;;2.40;;
5553;SDS011;2800;49.528;8.666;2022-10-16T12:28:27;7.93;;;2.70;;
5553;SDS011;2800;49.528;8.666;2022-10-16T12:31:05;8.63;;;3.30;;
5553;SDS011;2800;49.528;8.666;2022-10-16T12:33:34;5.60;;;2.40;;
5553;SDS011;2800;49.528;8.666;2022-10-16T12:36:09;7.07;;;2.37;;
5553;SDS011;2800;49.528;8.666;2022-10-16T12:38:49;5.20;;;2.70;;
5553;SDS011;2800;49.528;8.666;2022-10-16T12:43:54;6.93;;;2.77;;
5553;SDS011;2800;49.528;8.666;2022-10-16T12:46:24;7.50;;;3.00;;
5553;SDS011;2800;49.528;8.666;2022-10-16T12:49:48;5.33;;;2.40;;
5553;SDS011;2800;49.528;8.666;2022-10-16T12:52:02;5.90;;;2.70;;
5553;SDS011;2800;49.528;8.666;2022-10-16T12:54:35;6.57;;;3.10;;
5553;SDS011;2800;49.528;8.666;2022-10-16T13:02:52;13.10;;;2.70;;
5553;SDS011;2800;49.528;8.666;2022-10-16T13:08:10;10.57;;;2.60;;
5553;SDS011;2800;49.528;8.666;2022-10-16T13:19:38;7.40;;;2.93;;
5553;SDS011;2800;49.528;8.666;2022-10-16T13:25:34;7.20;;;2.50;;
5553;SDS011;2800;49.528;8.666;2022-10-16T13:28:08;7.70;;;2.30;;
5553;SDS011;2800;49.528;8.666;2022-10-16T13:30:52;6.00;;;3.00;;
5553;SDS011;2800;49.528;8.666;2022-10-16T13:33:20;7.00;;;2.43;;
5553;SDS011;2800;49.528;8.666;2022-10-16T13:35:47;6.03;;;2.40;;
5553;SDS011;2800;49.528;8.666;2022-10-16T13:38:16;8.70;;;2.70;;
5553;SDS011;2800;49.528;8.666;2022-10-16T13:40:53;6.67;;;2.67;;
5553;SDS011;2800;49.528;8.666;2022-10-16T13:46:24;8.37;;;2.80;;
5553;SDS011;2800;49.528;8.666;2022-10-16T13:49:04;8.93;;;2.73;;
5553;SDS011;2800;49.528;8.666;2022-10-16T13:51:36;6.10;;;2.60;;
5553;SDS011;2800;49.528;8.666;2022-10-16T13:54:01;8.00;;;3.20;;
5553;SDS011;2800;49.528;8.666;2022-10-16T13:56:28;11.43;;;3.17;;
5553;SDS011;2800;49.528;8.666;2022-10-16T13:58:58;7.37;;;2.80;;
5553;SDS011;2800;49.528;8.666;2022-10-16T14:01:28;9.17;;;3.20;;
5553;SDS011;2800;49.528;8.666;2022-10-16T14:04:14;10.23;;;2.90;;
5553;SDS011;2800;49.528;8.666;2022-10-16T14:06:41;6.93;;;2.50;;
5553;SDS011;2800;49.528;8.666;2022-10-16T14:09:21;4.00;;;1.93;;
5553;SDS011;2800;49.528;8.666;2022-10-16T14:11:53;5.67;;;2.50;;
5553;SDS011;2800;49.528;8.666;2022-10-16T14:14:22;13.13;;;2.70;;
5553;SDS011;2800;49.528;8.666;2022-10-16T14:16:48;6.77;;;2.53;;
5553;SDS011;2800;49.528;8.666;2022-10-16T14:19:21;8.27;;;2.60;;
5553;SDS011;2800;49.528;8.666;2022-10-16T14:21:50;5.17;;;2.30;;
5553;SDS011;2800;49.528;8.666;2022-10-16T14:24:32;6.93;;;2.40;;
5553;SDS011;2800;49.528;8.666;2022-10-16T14:26:59;13.53;;;2.83;;
5553;SDS011;2800;49.528;8.666;2022-10-16T14:29:27;7.43;;;3.10;;
5553;SDS011;2800;49.528;8.666;2022-10-16T14:32:03;18.33;;;3.00;;
5553;SDS011;2800;49.528;8.666;2022-10-16T14:34:31;10.80;;;2.50;;
5553;SDS011;2800;49.528;8.666;2022-10-16T14:36:59;12.07;;;3.00;;
5553;SDS011;2800;49.528;8.666;2022-10-16T14:39:32;9.07;;;2.40;;
5553;SDS011;2800;49.528;8.666;2022-10-16T14:41:58;13.00;;;3.00;;
5553;SDS011;2800;49.528;8.666;2022-10-16T14:44:27;13.63;;;2.73;;
5553;SDS011;2800;49.528;8.666;2022-10-16T14:46:56;9.30;;;2.73;;
5553;SDS011;2800;49.528;8.666;2022-10-16T14:49:22;7.33;;;2.53;;
5553;SDS011;2800;49.528;8.666;2022-10-16T14:51:49;14.03;;;2.40;;
5553;SDS011;2800;49.528;8.666;2022-10-16T14:54:16;6.00;;;2.50;;
5553;SDS011;2800;49.528;8.666;2022-10-16T15:02:16;6.97;;;2.47;;
5553;SDS011;2800;49.528;8.666;2022-10-16T15:04:45;9.57;;;2.97;;
5553;SDS011;2800;49.528;8.666;2022-10-16T15:07:10;9.70;;;2.80;;
5553;SDS011;2800;49.528;8.666;2022-10-16T15:09:36;12.80;;;3.43;;
5553;SDS011;2800;49.528;8.666;2022-10-16T15:12:01;8.00;;;3.10;;
5553;SDS011;2800;49.528;8.666;2022-10-16T15:14:27;14.60;;;3.50;;
5553;SDS011;2800;49.528;8.666;2022-10-16T15:16:53;7.50;;;3.20;;
5553;SDS011;2800;49.528;8.666;2022-10-16T15:19:18;14.00;;;2.90;;
5553;SDS011;2800;49.528;8.666;2022-10-16T15:21:44;15.23;;;3.07;;
5553;SDS011;2800;49.528;8.666;2022-10-16T15:24:11;30.13;;;3.53;;
5553;SDS011;2800;49.528;8.666;2022-10-16T15:26:38;11.10;;;3.80;;
5553;SDS011;2800;49.528;8.666;2022-10-16T15:29:04;23.10;;;5.13;;
5553;SDS011;2800;49.528;8.666;2022-10-16T15:31:29;13.40;;;6.23;;
5553;SDS011;2800;49.528;8.666;2022-10-16T15:33:55;15.20;;;4.60;;
5553;SDS011;2800;49.528;8.666;2022-10-16T15:36:30;13.57;;;6.17;;
5553;SDS011;2800;49.528;8.666;2022-10-16T15:38:59;22.20;;;10.13;;
5553;SDS011;2800;49.528;8.666;2022-10-16T15:41:24;28.00;;;6.20;;
5553;SDS011;2800;49.528;8.666;2022-10-16T15:43:50;17.10;;;6.63;;
5553;SDS011;2800;49.528;8.666;2022-10-16T15:46:20;12.00;;;4.70;;
5553;SDS011;2800;49.528;8.666;2022-10-16T15:48:50;19.87;;;5.20;;
5553;SDS011;2800;49.528;8.666;2022-10-16T15:51:20;17.57;;;4.00;;
5553;SDS011;2800;49.528;8.666;2022-10-16T15:53:46;12.97;;;4.17;;
5553;SDS011;2800;49.528;8.666;2022-10-16T15:56:12;20.40;;;6.87;;
5553;SDS011;2800;49.528;8.666;2022-10-16T15:58:38;9.93;;;3.80;;
5553;SDS011;2800;49.528;8.666;2022-10-16T16:01:04;10.40;;;3.90;;
5553;SDS011;2800;49.528;8.666;2022-10-16T16:03:31;11.27;;;4.00;;
5553;SDS011;2800;49.528;8.666;2022-10-16T16:05:56;9.53;;;3.30;;
5553;SDS011;2800;49.528;8.666;2022-10-16T16:08:22;12.27;;;3.50;;
5553;SDS011;2800;49.528;8.666;2022-10-16T16:10:57;12.30;;;3.67;;
5553;SDS011;2800;49.528;8.666;2022-10-16T16:13:24;11.57;;;3.60;;
5553;SDS011;2800;49.528;8.666;2022-10-16T16:15:49;14.50;;;4.13;;
5553;SDS011;2800;49.528;8.666;2022-10-16T16:18:15;12.73;;;3.83;;
5553;SDS011;2800;49.528;8.666;2022-10-16T16:20:40;19.37;;;3.73;;
5553;SDS011;2800;49.528;8.666;2022-10-16T16:23:06;20.30;;;3.73;;
5553;SDS011;2800;49.528;8.666;2022-10-16T16:25:31;13.87;;;3.17;;
5553;SDS011;2800;49.528;8.666;2022-10-16T16:27:57;14.73;;;3.00;;
5553;SDS011;2800;49.528;8.666;2022-10-16T16:30:22;8.70;;;3.10;;
5553;SDS011;2800;49.528;8.666;2022-10-16T16:32:48;15.03;;;3.17;;
5553;SDS011;2800;49.528;8.666;2022-10-16T16:35:13;9.50;;;3.60;;
5553;SDS011;2800;49.528;8.666;2022-10-16T16:37:39;17.60;;;3.77;;
5553;SDS011;2800;49.528;8.666;2022-10-16T16:40:04;15.23;;;4.10;;
5553;SDS011;2800;49.528;8.666;2022-10-16T16:42:30;22.43;;;3.70;;
5553;SDS011;2800;49.528;8.666;2022-10-16T16:44:56;13.43;;;3.37;;
5553;SDS011;2800;49.528;8.666;2022-10-16T16:47:21;23.27;;;3.70;;
5553;SDS011;2800;49.528;8.666;2022-10-16T16:49:47;8.37;;;3.33;;
5553;SDS011;2800;49.528;8.666;2022-10-16T16:52:13;23.67;;;3.33;;
5553;SDS011;2800;49.528;8.666;2022-10-16T16:54:39;14.10;;;3.30;;
5553;SDS011;2800;49.528;8.666;2022-10-16T16:57:04;11.23;;;3.13;;
5553;SDS011;2800;49.528;8.666;2022-10-16T16:59:30;14.67;;;3.63;;
5553;SDS011;2800;49.528;8.666;2022-10-16T17:01:58;11.87;;;3.10;;
5553;SDS011;2800;49.528;8.666;2022-10-16T17:04:24;10.23;;;3.20;;
5553;SDS011;2800;49.528;8.666;2022-10-16T17:06:52;7.37;;;3.00;;
5553;SDS011;2800;49.528;8.666;2022-10-16T17:09:19;10.23;;;2.93;;
5553;SDS011;2800;49.528;8.666;2022-10-16T17:11:44;15.40;;;3.30;;
5553;SDS011;2800;49.528;8.666;2022-10-16T17:14:11;9.90;;;2.80;;
5553;SDS011;2800;49.528;8.666;2022-10-16T17:16:37;9.90;;;2.80;;
5553;SDS011;2800;49.528;8.666;2022-10-16T17:19:04;8.53;;;3.03;;
5553;SDS011;2800;49.528;8.666;2022-10-16T17:21:32;11.67;;;2.80;;
5553;SDS011;2800;49.528;8.666;2022-10-16T17:23:58;8.60;;;2.80;;
5553;SDS011;2800;49.528;8.666;2022-10-16T17:26:25;12.77;;;3.67;;